sensor_id;sensor_type;location;lat;lon;timestamp;P1;durP1;ratioP1;P2;durP2;ratioP2
2177;SDS011;1095;50.992;6.798;2022-11-20T00:00:18;29.60;;;17.95;;
2177;SDS011;1095;50.992;6.798;2022-11-20T00:02:44;25.52;;;16.17;;
2177;SDS011;1095;50.992;6.798;2022-11-20T00:05:11;29.95;;;17.35;;
2177;SDS011;1095;50.992;6.798;2022-11-20T00:07:38;29.50;;;17.88;;
2177;SDS011;1095;50.992;6.798;2022-11-20T00:10:05;27.00;;;17.88;;
2177;SDS011;1095;50.992;6.798;2022-11-20T00:12:33;34.38;;;18.17;;
2177;SDS011;1095;50.992;6.798;2022-11-20T00:15:00;28.15;;;17.67;;
2177;SDS011;1095;50.992;6.798;2022-11-20T00:17:27;29.55;;;17.73;;
2177;SDS011;1095;50.992;6.798;2022-11-20T00:19:53;28.67;;;17.42;;
2177;SDS011;1095;50.992;6.798;2022-11-20T00:22:20;29.60;;;17.88;;
2177;SDS011;1095;50.992;6.798;2022-11-20T00:24:47;29.17;;;17.75;;
2177;SDS011;1095;50.992;6.798;2022-11-20T00:27:14;26.10;;;16.63;;
2177;SDS011;1095;50.992;6.798;2022-11-20T00:29:42;29.33;;;17.70;;
2177;SDS011;1095;50.992;6.798;2022-11-20T00:32:10;30.13;;;16.55;;
2177;SDS011;1095;50.992;6.798;2022-11-20T00:34:37;30.45;;;17.75;;
2177;SDS011;1095;50.992;6.798;2022-11-20T00:37:04;28.10;;;16.77;;
2177;SDS011;1095;50.992;6.798;2022-11-20T00:39:31;28.02;;;17.63;;
2177;SDS011;1095;50.992;6.798;2022-11-20T00:41:59;26.92;;;16.92;;
2177;SDS011;1095;50.992;6.798;2022-11-20T00:44:25;26.85;;;17.63;;
2177;SDS011;1095;50.992;6.798;2022-11-20T00:46:54;28.23;;;16.95;;
2177;SDS011;1095;50.992;6.798;2022-11-20T00:49:21;27.45;;;16.30;;
2177;SDS011;1095;50.992;6.798;2022-11-20T00:51:47;28.13;;;17.02;;
2177;SDS011;1095;50.992;6.798;2022-11-20T00:54:14;26.88;;;17.08;;
2177;SDS011;1095;50.992;6.798;2022-11-20T00:56:41;28.42;;;17.58;;
2177;SDS011;1095;50.992;6.798;2022-11-20T00:59:08;29.55;;;17.92;;
2177;SDS011;1095;50.992;6.798;2022-11-20T01:01:36;28.35;;;17.35;;
2177;SDS011;1095;50.992;6.798;2022-11-20T01:04:04;28.13;;;18.27;;
2177;SDS011;1095;50.992;6.798;2022-11-20T01:06:32;27.25;;;16.88;;
2177;SDS011;1095;50.992;6.798;2022-11-20T01:09:01;28.20;;;17.10;;
2177;SDS011;1095;50.992;6.798;2022-11-20T01:11:30;28.70;;;18.35;;
2177;SDS011;1095;50.992;6.798;2022-11-20T01:13:59;26.35;;;17.38;;
2177;SDS011;1095;50.992;6.798;2022-11-20T01:16:27;28.75;;;17.25;;
2177;SDS011;1095;50.992;6.798;2022-11-20T01:18:56;31.58;;;18.73;;
2177;SDS011;1095;50.992;6.798;2022-11-20T01:21:26;29.48;;;17.95;;
2177;SDS011;1095;50.992;6.798;2022-11-20T01:23:54;29.48;;;17.67;;
2177;SDS011;1095;50.992;6.798;2022-11-20T01:26:22;27.45;;;17.55;;
2177;SDS011;1095;50.992;6.798;2022-11-20T01:28:50;28.25;;;16.70;;
2177;SDS011;1095;50.992;6.798;2022-11-20T01:31:18;29.27;;;17.77;;
2177;SDS011;1095;50.992;6.798;2022-11-20T01:33:47;28.27;;;17.23;;
2177;SDS011;1095;50.992;6.798;2022-11-20T01:36:15;27.58;;;16.45;;
2177;SDS011;1095;50.992;6.798;2022-11-20T01:38:44;35.13;;;18.23;;
2177;SDS011;1095;50.992;6.798;2022-11-20T01:41:12;28.55;;;17.58;;
2177;SDS011;1095;50.992;6.798;2022-11-20T01:44:01;31.60;;;17.00;;
2177;SDS011;1095;50.992;6.798;2022-11-20T01:46:28;29.23;;;17.15;;
2177;SDS011;1095;50.992;6.798;2022-11-20T01:48:56;26.38;;;16.00;;
2177;SDS011;1095;50.992;6.798;2022-11-20T01:51:29;30.00;;;17.60;;
2177;SDS011;1095;50.992;6.798;2022-11-20T01:54:00;32.00;;;17.98;;
2177;SDS011;1095;50.992;6.798;2022-11-20T01:56:31;27.40;;;17.38;;
2177;SDS011;1095;50.992;6.798;2022-11-20T01:59:03;28.88;;;17.15;;
2177;SDS011;1095;50.992;6.798;2022-11-20T02:01:31;28.65;;;17.25;;
2177;SDS011;1095;50.992;6.798;2022-11-20T02:03:58;29.63;;;17.45;;
2177;SDS011;1095;50.992;6.798;2022-11-20T02:06:27;24.85;;;16.42;;
2177;SDS011;1095;50.992;6.798;2022-11-20T02:08:57;27.90;;;17.05;;
2177;SDS011;1095;50.992;6.798;2022-11-20T02:11:25;27.88;;;17.75;;
2177;SDS011;1095;50.992;6.798;2022-11-20T02:13:52;27.63;;;17.35;;
2177;SDS011;1095;50.992;6.798;2022-11-20T02:16:20;29.50;;;17.30;;
2177;SDS011;1095;50.992;6.798;2022-11-20T02:18:49;28.42;;;17.30;;
2177;SDS011;1095;50.992;6.798;2022-11-20T02:21:20;28.98;;;17.45;;
2177;SDS011;1095;50.992;6.798;2022-11-20T02:23:56;27.48;;;17.85;;
2177;SDS011;1095;50.992;6.798;2022-11-20T02:26:28;31.05;;;16.77;;
2177;SDS011;1095;50.992;6.798;2022-11-20T02:28:57;27.02;;;16.60;;
2177;SDS011;1095;50.992;6.798;2022-11-20T02:31:25;29.77;;;18.02;;
2177;SDS011;1095;50.992;6.798;2022-11-20T02:33:55;25.75;;;16.90;;
2177;SDS011;1095;50.992;6.798;2022-11-20T02:36:23;29.42;;;17.73;;
2177;SDS011;1095;50.992;6.798;2022-11-20T02:38:52;28.70;;;17.17;;
2177;SDS011;1095;50.992;6.798;2022-11-20T02:41:20;29.70;;;17.20;;
2177;SDS011;1095;50.992;6.798;2022-11-20T02:43:47;30.75;;;18.33;;
2177;SDS011;1095;50.992;6.798;2022-11-20T02:46:14;28.15;;;16.88;;
2177;SDS011;1095;50.992;6.798;2022-11-20T02:48:40;27.70;;;17.02;;
2177;SDS011;1095;50.992;6.798;2022-11-20T02:51:07;27.13;;;16.80;;
2177;SDS011;1095;50.992;6.798;2022-11-20T02:53:34;30.00;;;18.10;;
2177;SDS011;1095;50.992;6.798;2022-11-20T02:56:00;28.13;;;17.55;;
2177;SDS011;1095;50.992;6.798;2022-11-20T02:58:28;29.77;;;18.33;;
2177;SDS011;1095;50.992;6.798;2022-11-20T03:00:55;28.25;;;17.77;;
2177;SDS011;1095;50.992;6.798;2022-11-20T03:03:21;29.23;;;17.83;;
2177;SDS011;1095;50.992;6.798;2022-11-20T03:05:48;26.38;;;17.65;;
2177;SDS011;1095;50.992;6.798;2022-11-20T03:08:15;27.85;;;16.95;;
2177;SDS011;1095;50.992;6.798;2022-11-20T03:10:41;28.85;;;18.13;;
2177;SDS011;1095;50.992;6.798;2022-11-20T03:13:08;27.63;;;17.40;;
2177;SDS011;1095;50.992;6.798;2022-11-20T03:15:36;26.65;;;17.73;;
2177;SDS011;1095;50.992;6.798;2022-11-20T03:18:03;26.23;;;17.05;;
2177;SDS011;1095;50.992;6.798;2022-11-20T03:20:31;27.13;;;18.30;;
2177;SDS011;1095;50.992;6.798;2022-11-20T03:22:59;30.15;;;18.65;;
2177;SDS011;1095;50.992;6.798;2022-11-20T03:25:26;28.40;;;17.48;;
2177;SDS011;1095;50.992;6.798;2022-11-20T03:27:53;26.90;;;17.67;;
2177;SDS011;1095;50.992;6.798;2022-11-20T03:30:20;31.65;;;18.52;;
2177;SDS011;1095;50.992;6.798;2022-11-20T03:32:48;29.20;;;17.95;;
2177;SDS011;1095;50.992;6.798;2022-11-20T03:35:14;29.65;;;18.08;;
2177;SDS011;1095;50.992;6.798;2022-11-20T03:37:41;27.95;;;18.02;;
2177;SDS011;1095;50.992;6.798;2022-11-20T03:40:08;29.00;;;18.05;;
2177;SDS011;1095;50.992;6.798;2022-11-20T03:42:35;25.83;;;16.45;;
2177;SDS011;1095;50.992;6.798;2022-11-20T03:45:11;27.67;;;17.20;;
2177;SDS011;1095;50.992;6.798;2022-11-20T03:47:37;30.75;;;18.15;;
2177;SDS011;1095;50.992;6.798;2022-11-20T03:50:06;29.83;;;17.98;;
2177;SDS011;1095;50.992;6.798;2022-11-20T03:52:33;32.60;;;18.95;;
2177;SDS011;1095;50.992;6.798;2022-11-20T03:55:00;29.17;;;17.77;;
2177;SDS011;1095;50.992;6.798;2022-11-20T03:57:26;28.10;;;17.98;;
2177;SDS011;1095;50.992;6.798;2022-11-20T03:59:53;26.85;;;16.98;;
2177;SDS011;1095;50.992;6.798;2022-11-20T04:02:19;31.85;;;18.45;;
2177;SDS011;1095;50.992;6.798;2022-11-20T04:04:46;30.75;;;18.52;;
2177;SDS011;1095;50.992;6.798;2022-11-20T04:07:14;28.52;;;17.67;;
2177;SDS011;1095;50.992;6.798;2022-11-20T04:09:41;28.70;;;16.88;;
2177;SDS011;1095;50.992;6.798;2022-11-20T04:12:07;30.67;;;17.77;;
2177;SDS011;1095;50.992;6.798;2022-11-20T04:14:34;29.88;;;18.13;;
2177;SDS011;1095;50.992;6.798;2022-11-20T04:17:01;30.17;;;18.17;;
2177;SDS011;1095;50.992;6.798;2022-11-20T04:19:29;29.58;;;18.00;;
2177;SDS011;1095;50.992;6.798;2022-11-20T04:21:56;32.83;;;18.90;;
2177;SDS011;1095;50.992;6.798;2022-11-20T04:24:24;29.80;;;18.40;;
2177;SDS011;1095;50.992;6.798;2022-11-20T04:26:50;31.08;;;17.67;;
2177;SDS011;1095;50.992;6.798;2022-11-20T04:29:17;28.73;;;18.48;;
2177;SDS011;1095;50.992;6.798;2022-11-20T04:31:43;29.58;;;18.35;;
2177;SDS011;1095;50.992;6.798;2022-11-20T04:34:10;29.70;;;18.48;;
2177;SDS011;1095;50.992;6.798;2022-11-20T04:36:37;28.35;;;18.15;;
2177;SDS011;1095;50.992;6.798;2022-11-20T04:39:05;31.60;;;18.17;;
2177;SDS011;1095;50.992;6.798;2022-11-20T04:41:34;29.60;;;17.60;;
2177;SDS011;1095;50.992;6.798;2022-11-20T04:44:02;30.50;;;18.73;;
2177;SDS011;1095;50.992;6.798;2022-11-20T04:46:31;29.98;;;18.17;;
2177;SDS011;1095;50.992;6.798;2022-11-20T04:48:59;29.20;;;18.45;;
2177;SDS011;1095;50.992;6.798;2022-11-20T04:51:26;29.23;;;18.40;;
2177;SDS011;1095;50.992;6.798;2022-11-20T04:53:53;29.38;;;16.98;;
2177;SDS011;1095;50.992;6.798;2022-11-20T04:56:19;26.25;;;17.23;;
2177;SDS011;1095;50.992;6.798;2022-11-20T04:58:47;33.33;;;19.05;;
2177;SDS011;1095;50.992;6.798;2022-11-20T05:01:15;31.05;;;19.13;;
2177;SDS011;1095;50.992;6.798;2022-11-20T05:03:45;28.15;;;18.23;;
2177;SDS011;1095;50.992;6.798;2022-11-20T05:06:13;29.63;;;17.92;;
2177;SDS011;1095;50.992;6.798;2022-11-20T05:08:40;30.48;;;18.00;;
2177;SDS011;1095;50.992;6.798;2022-11-20T05:11:08;30.30;;;18.15;;
2177;SDS011;1095;50.992;6.798;2022-11-20T05:13:39;28.83;;;18.30;;
2177;SDS011;1095;50.992;6.798;2022-11-20T05:16:08;29.73;;;18.00;;
2177;SDS011;1095;50.992;6.798;2022-11-20T05:18:36;30.70;;;18.80;;
2177;SDS011;1095;50.992;6.798;2022-11-20T05:21:04;29.40;;;19.02;;
2177;SDS011;1095;50.992;6.798;2022-11-20T05:23:31;31.27;;;19.33;;
2177;SDS011;1095;50.992;6.798;2022-11-20T05:25:59;32.75;;;19.05;;
2177;SDS011;1095;50.992;6.798;2022-11-20T05:28:26;32.35;;;19.17;;
2177;SDS011;1095;50.992;6.798;2022-11-20T05:30:53;30.08;;;18.95;;
2177;SDS011;1095;50.992;6.798;2022-11-20T05:33:22;34.35;;;20.30;;
2177;SDS011;1095;50.992;6.798;2022-11-20T05:35:48;31.65;;;20.48;;
2177;SDS011;1095;50.992;6.798;2022-11-20T05:38:15;34.53;;;20.05;;
2177;SDS011;1095;50.992;6.798;2022-11-20T05:40:42;35.17;;;19.80;;
2177;SDS011;1095;50.992;6.798;2022-11-20T05:43:08;32.67;;;20.08;;
2177;SDS011;1095;50.992;6.798;2022-11-20T05:45:35;36.60;;;20.35;;
2177;SDS011;1095;50.992;6.798;2022-11-20T05:48:01;35.50;;;20.35;;
2177;SDS011;1095;50.992;6.798;2022-11-20T05:50:30;36.55;;;20.92;;
2177;SDS011;1095;50.992;6.798;2022-11-20T05:52:57;34.70;;;20.40;;
2177;SDS011;1095;50.992;6.798;2022-11-20T05:55:24;34.28;;;20.58;;
2177;SDS011;1095;50.992;6.798;2022-11-20T05:57:51;34.45;;;20.35;;
2177;SDS011;1095;50.992;6.798;2022-11-20T06:00:18;36.08;;;20.67;;
2177;SDS011;1095;50.992;6.798;2022-11-20T06:02:45;33.90;;;20.70;;
2177;SDS011;1095;50.992;6.798;2022-11-20T06:05:11;32.33;;;19.52;;
2177;SDS011;1095;50.992;6.798;2022-11-20T06:07:40;35.60;;;19.63;;
2177;SDS011;1095;50.992;6.798;2022-11-20T06:10:07;34.75;;;19.58;;
2177;SDS011;1095;50.992;6.798;2022-11-20T06:12:34;36.28;;;19.33;;
2177;SDS011;1095;50.992;6.798;2022-11-20T06:15:00;32.35;;;19.85;;
2177;SDS011;1095;50.992;6.798;2022-11-20T06:17:27;32.50;;;19.67;;
2177;SDS011;1095;50.992;6.798;2022-11-20T06:19:54;36.30;;;20.50;;
2177;SDS011;1095;50.992;6.798;2022-11-20T06:22:20;33.58;;;20.23;;
2177;SDS011;1095;50.992;6.798;2022-11-20T06:24:48;37.38;;;20.70;;
2177;SDS011;1095;50.992;6.798;2022-11-20T06:27:15;33.88;;;21.08;;
2177;SDS011;1095;50.992;6.798;2022-11-20T06:29:42;41.03;;;22.02;;
2177;SDS011;1095;50.992;6.798;2022-11-20T06:32:08;38.15;;;21.52;;
2177;SDS011;1095;50.992;6.798;2022-11-20T06:34:48;37.72;;;21.85;;
2177;SDS011;1095;50.992;6.798;2022-11-20T06:37:15;39.15;;;21.55;;
2177;SDS011;1095;50.992;6.798;2022-11-20T06:39:42;39.55;;;21.98;;
2177;SDS011;1095;50.992;6.798;2022-11-20T06:42:10;34.65;;;20.80;;
2177;SDS011;1095;50.992;6.798;2022-11-20T06:44:37;33.33;;;19.75;;
2177;SDS011;1095;50.992;6.798;2022-11-20T06:47:03;34.13;;;20.05;;
2177;SDS011;1095;50.992;6.798;2022-11-20T06:49:30;35.20;;;19.80;;
2177;SDS011;1095;50.992;6.798;2022-11-20T06:51:59;32.42;;;20.27;;
2177;SDS011;1095;50.992;6.798;2022-11-20T06:54:28;34.47;;;20.17;;
2177;SDS011;1095;50.992;6.798;2022-11-20T06:56:55;35.38;;;20.65;;
2177;SDS011;1095;50.992;6.798;2022-11-20T06:59:23;37.92;;;21.90;;
2177;SDS011;1095;50.992;6.798;2022-11-20T07:01:50;33.05;;;20.50;;
2177;SDS011;1095;50.992;6.798;2022-11-20T07:04:17;38.85;;;22.60;;
2177;SDS011;1095;50.992;6.798;2022-11-20T07:06:43;37.25;;;21.98;;
2177;SDS011;1095;50.992;6.798;2022-11-20T07:09:10;37.05;;;21.42;;
2177;SDS011;1095;50.992;6.798;2022-11-20T07:11:36;39.28;;;22.25;;
2177;SDS011;1095;50.992;6.798;2022-11-20T07:14:03;36.28;;;21.65;;
2177;SDS011;1095;50.992;6.798;2022-11-20T07:16:31;38.80;;;22.90;;
2177;SDS011;1095;50.992;6.798;2022-11-20T07:18:58;38.08;;;21.88;;
2177;SDS011;1095;50.992;6.798;2022-11-20T07:21:25;36.72;;;21.88;;
2177;SDS011;1095;50.992;6.798;2022-11-20T07:23:52;37.00;;;21.98;;
2177;SDS011;1095;50.992;6.798;2022-11-20T07:26:20;40.88;;;22.45;;
2177;SDS011;1095;50.992;6.798;2022-11-20T07:28:46;36.10;;;20.90;;
2177;SDS011;1095;50.992;6.798;2022-11-20T07:31:13;35.85;;;20.73;;
2177;SDS011;1095;50.992;6.798;2022-11-20T07:33:41;36.50;;;21.23;;
2177;SDS011;1095;50.992;6.798;2022-11-20T07:36:12;34.57;;;20.17;;
2177;SDS011;1095;50.992;6.798;2022-11-20T07:38:53;35.08;;;20.65;;
2177;SDS011;1095;50.992;6.798;2022-11-20T07:41:22;36.58;;;21.42;;
2177;SDS011;1095;50.992;6.798;2022-11-20T07:43:56;37.50;;;21.45;;
2177;SDS011;1095;50.992;6.798;2022-11-20T07:46:31;38.17;;;21.88;;
2177;SDS011;1095;50.992;6.798;2022-11-20T07:51:42;38.65;;;22.23;;
2177;SDS011;1095;50.992;6.798;2022-11-20T07:54:09;43.40;;;26.67;;
2177;SDS011;1095;50.992;6.798;2022-11-20T07:56:35;37.58;;;21.92;;
2177;SDS011;1095;50.992;6.798;2022-11-20T07:59:02;37.13;;;22.00;;
2177;SDS011;1095;50.992;6.798;2022-11-20T08:01:29;37.40;;;22.95;;
2177;SDS011;1095;50.992;6.798;2022-11-20T08:04:11;40.45;;;21.90;;
2177;SDS011;1095;50.992;6.798;2022-11-20T08:06:46;36.05;;;20.63;;
2177;SDS011;1095;50.992;6.798;2022-11-20T08:09:13;35.38;;;21.00;;
2177;SDS011;1095;50.992;6.798;2022-11-20T08:11:40;36.05;;;21.77;;
2177;SDS011;1095;50.992;6.798;2022-11-20T08:14:24;34.38;;;21.45;;
2177;SDS011;1095;50.992;6.798;2022-11-20T08:16:52;36.60;;;22.20;;
2177;SDS011;1095;50.992;6.798;2022-11-20T08:19:18;38.78;;;21.98;;
2177;SDS011;1095;50.992;6.798;2022-11-20T08:21:46;35.08;;;21.77;;
2177;SDS011;1095;50.992;6.798;2022-11-20T08:24:13;34.20;;;20.48;;
2177;SDS011;1095;50.992;6.798;2022-11-20T08:26:40;34.45;;;20.63;;
2177;SDS011;1095;50.992;6.798;2022-11-20T08:29:07;35.90;;;21.50;;
2177;SDS011;1095;50.992;6.798;2022-11-20T08:31:33;35.13;;;20.83;;
2177;SDS011;1095;50.992;6.798;2022-11-20T08:34:00;39.10;;;23.80;;
2177;SDS011;1095;50.992;6.798;2022-11-20T08:36:27;40.65;;;23.77;;
2177;SDS011;1095;50.992;6.798;2022-11-20T08:38:55;35.60;;;21.20;;
2177;SDS011;1095;50.992;6.798;2022-11-20T08:41:22;47.05;;;31.90;;
2177;SDS011;1095;50.992;6.798;2022-11-20T08:43:52;29.98;;;18.48;;
2177;SDS011;1095;50.992;6.798;2022-11-20T08:46:21;32.55;;;19.33;;
2177;SDS011;1095;50.992;6.798;2022-11-20T08:48:47;35.03;;;18.77;;
2177;SDS011;1095;50.992;6.798;2022-11-20T08:51:14;29.85;;;17.35;;
2177;SDS011;1095;50.992;6.798;2022-11-20T08:53:41;31.42;;;18.52;;
2177;SDS011;1095;50.992;6.798;2022-11-20T08:56:10;34.00;;;19.15;;
2177;SDS011;1095;50.992;6.798;2022-11-20T08:58:36;32.42;;;19.88;;
2177;SDS011;1095;50.992;6.798;2022-11-20T09:01:03;31.52;;;19.67;;
2177;SDS011;1095;50.992;6.798;2022-11-20T09:03:30;31.88;;;21.08;;
2177;SDS011;1095;50.992;6.798;2022-11-20T09:05:58;32.88;;;19.73;;
2177;SDS011;1095;50.992;6.798;2022-11-20T09:08:25;31.75;;;18.80;;
2177;SDS011;1095;50.992;6.798;2022-11-20T09:10:52;30.48;;;18.02;;
2177;SDS011;1095;50.992;6.798;2022-11-20T09:13:20;28.42;;;17.40;;
2177;SDS011;1095;50.992;6.798;2022-11-20T09:15:51;28.30;;;17.00;;
2177;SDS011;1095;50.992;6.798;2022-11-20T09:18:19;36.45;;;19.60;;
2177;SDS011;1095;50.992;6.798;2022-11-20T09:20:46;37.22;;;20.77;;
2177;SDS011;1095;50.992;6.798;2022-11-20T09:23:12;32.22;;;19.83;;
2177;SDS011;1095;50.992;6.798;2022-11-20T09:25:39;34.35;;;19.52;;
2177;SDS011;1095;50.992;6.798;2022-11-20T09:28:05;33.42;;;19.70;;
2177;SDS011;1095;50.992;6.798;2022-11-20T09:30:34;32.63;;;19.40;;
2177;SDS011;1095;50.992;6.798;2022-11-20T09:33:00;34.45;;;20.10;;
2177;SDS011;1095;50.992;6.798;2022-11-20T09:35:27;37.60;;;21.63;;
2177;SDS011;1095;50.992;6.798;2022-11-20T09:37:53;33.15;;;21.05;;
2177;SDS011;1095;50.992;6.798;2022-11-20T09:40:20;37.08;;;21.38;;
2177;SDS011;1095;50.992;6.798;2022-11-20T09:42:50;35.25;;;20.30;;
2177;SDS011;1095;50.992;6.798;2022-11-20T09:45:24;39.97;;;21.40;;
2177;SDS011;1095;50.992;6.798;2022-11-20T09:48:06;38.03;;;21.60;;
2177;SDS011;1095;50.992;6.798;2022-11-20T09:50:43;36.78;;;21.92;;
2177;SDS011;1095;50.992;6.798;2022-11-20T09:55:46;38.20;;;21.27;;
2177;SDS011;1095;50.992;6.798;2022-11-20T09:58:15;36.90;;;21.17;;
2177;SDS011;1095;50.992;6.798;2022-11-20T10:00:50;35.20;;;21.70;;
2177;SDS011;1095;50.992;6.798;2022-11-20T10:03:24;38.28;;;21.52;;
2177;SDS011;1095;50.992;6.798;2022-11-20T10:06:02;37.33;;;21.55;;
2177;SDS011;1095;50.992;6.798;2022-11-20T10:08:33;38.47;;;21.65;;
2177;SDS011;1095;50.992;6.798;2022-11-20T10:11:07;100.97;;;50.85;;
2177;SDS011;1095;50.992;6.798;2022-11-20T10:13:43;45.10;;;25.58;;
2177;SDS011;1095;50.992;6.798;2022-11-20T10:16:23;39.45;;;21.50;;
2177;SDS011;1095;50.992;6.798;2022-11-20T10:19:03;37.03;;;22.10;;
2177;SDS011;1095;50.992;6.798;2022-11-20T10:21:52;36.97;;;21.70;;
2177;SDS011;1095;50.992;6.798;2022-11-20T10:27:30;35.97;;;20.55;;
2177;SDS011;1095;50.992;6.798;2022-11-20T10:30:07;54.80;;;33.47;;
2177;SDS011;1095;50.992;6.798;2022-11-20T10:32:36;36.33;;;20.92;;
2177;SDS011;1095;50.992;6.798;2022-11-20T10:35:06;34.58;;;21.02;;
2177;SDS011;1095;50.992;6.798;2022-11-20T10:37:42;35.25;;;21.08;;
2177;SDS011;1095;50.992;6.798;2022-11-20T10:40:18;34.75;;;20.88;;
2177;SDS011;1095;50.992;6.798;2022-11-20T10:42:50;36.58;;;21.73;;
2177;SDS011;1095;50.992;6.798;2022-11-20T10:45:24;34.65;;;20.02;;
2177;SDS011;1095;50.992;6.798;2022-11-20T10:48:07;36.70;;;21.15;;
2177;SDS011;1095;50.992;6.798;2022-11-20T10:50:42;35.70;;;21.42;;
2177;SDS011;1095;50.992;6.798;2022-11-20T10:53:19;35.10;;;20.65;;
2177;SDS011;1095;50.992;6.798;2022-11-20T10:55:58;33.90;;;20.50;;
2177;SDS011;1095;50.992;6.798;2022-11-20T10:58:33;33.58;;;19.33;;
2177;SDS011;1095;50.992;6.798;2022-11-20T11:01:04;34.33;;;19.73;;
2177;SDS011;1095;50.992;6.798;2022-11-20T11:03:31;35.78;;;20.90;;
2177;SDS011;1095;50.992;6.798;2022-11-20T11:06:02;37.88;;;19.17;;
2177;SDS011;1095;50.992;6.798;2022-11-20T11:08:38;32.55;;;19.55;;
2177;SDS011;1095;50.992;6.798;2022-11-20T11:11:09;35.05;;;20.98;;
2177;SDS011;1095;50.992;6.798;2022-11-20T11:13:46;38.33;;;20.67;;
2177;SDS011;1095;50.992;6.798;2022-11-20T11:16:19;40.35;;;21.15;;
2177;SDS011;1095;50.992;6.798;2022-11-20T11:18:48;37.17;;;21.40;;
2177;SDS011;1095;50.992;6.798;2022-11-20T11:21:21;43.75;;;24.77;;
2177;SDS011;1095;50.992;6.798;2022-11-20T11:23:57;40.28;;;23.80;;
2177;SDS011;1095;50.992;6.798;2022-11-20T11:26:25;40.90;;;23.23;;
2177;SDS011;1095;50.992;6.798;2022-11-20T11:28:53;39.75;;;23.30;;
2177;SDS011;1095;50.992;6.798;2022-11-20T11:31:24;38.97;;;23.23;;
2177;SDS011;1095;50.992;6.798;2022-11-20T11:34:02;39.28;;;24.38;;
2177;SDS011;1095;50.992;6.798;2022-11-20T11:36:32;39.45;;;23.15;;
2177;SDS011;1095;50.992;6.798;2022-11-20T11:39:00;36.22;;;22.23;;
2177;SDS011;1095;50.992;6.798;2022-11-20T11:41:31;39.03;;;22.25;;
2177;SDS011;1095;50.992;6.798;2022-11-20T11:44:01;42.58;;;23.33;;
2177;SDS011;1095;50.992;6.798;2022-11-20T11:46:59;41.30;;;23.05;;
2177;SDS011;1095;50.992;6.798;2022-11-20T11:49:27;37.97;;;22.45;;
2177;SDS011;1095;50.992;6.798;2022-11-20T11:52:00;39.63;;;24.27;;
2177;SDS011;1095;50.992;6.798;2022-11-20T11:54:34;38.15;;;22.33;;
2177;SDS011;1095;50.992;6.798;2022-11-20T11:57:05;40.17;;;22.65;;
2177;SDS011;1095;50.992;6.798;2022-11-20T11:59:44;37.63;;;21.63;;
2177;SDS011;1095;50.992;6.798;2022-11-20T12:02:24;37.22;;;21.75;;
2177;SDS011;1095;50.992;6.798;2022-11-20T12:04:57;36.00;;;20.90;;
2177;SDS011;1095;50.992;6.798;2022-11-20T12:07:30;39.72;;;21.38;;
2177;SDS011;1095;50.992;6.798;2022-11-20T12:10:14;36.35;;;21.17;;
2177;SDS011;1095;50.992;6.798;2022-11-20T12:12:45;36.47;;;21.85;;
2177;SDS011;1095;50.992;6.798;2022-11-20T12:15:20;37.10;;;22.13;;
2177;SDS011;1095;50.992;6.798;2022-11-20T12:17:52;38.80;;;22.00;;
2177;SDS011;1095;50.992;6.798;2022-11-20T12:20:18;35.60;;;21.33;;
2177;SDS011;1095;50.992;6.798;2022-11-20T12:22:51;37.05;;;20.70;;
2177;SDS011;1095;50.992;6.798;2022-11-20T12:25:27;38.17;;;21.15;;
2177;SDS011;1095;50.992;6.798;2022-11-20T12:30:53;39.08;;;21.77;;
2177;SDS011;1095;50.992;6.798;2022-11-20T12:33:41;39.67;;;22.58;;
2177;SDS011;1095;50.992;6.798;2022-11-20T12:36:28;37.13;;;22.25;;
2177;SDS011;1095;50.992;6.798;2022-11-20T12:39:10;36.50;;;22.63;;
2177;SDS011;1095;50.992;6.798;2022-11-20T12:41:56;35.45;;;20.63;;
2177;SDS011;1095;50.992;6.798;2022-11-20T12:45:27;37.03;;;21.92;;
2177;SDS011;1095;50.992;6.798;2022-11-20T12:48:11;38.10;;;21.98;;
2177;SDS011;1095;50.992;6.798;2022-11-20T12:53:37;38.90;;;21.02;;
2177;SDS011;1095;50.992;6.798;2022-11-20T12:56:16;40.00;;;21.75;;
2177;SDS011;1095;50.992;6.798;2022-11-20T12:58:55;36.47;;;22.67;;
2177;SDS011;1095;50.992;6.798;2022-11-20T13:01:32;40.33;;;23.05;;
2177;SDS011;1095;50.992;6.798;2022-11-20T13:04:08;38.95;;;21.98;;
2177;SDS011;1095;50.992;6.798;2022-11-20T13:06:45;35.53;;;22.13;;
2177;SDS011;1095;50.992;6.798;2022-11-20T13:09:14;34.58;;;21.50;;
2177;SDS011;1095;50.992;6.798;2022-11-20T13:11:47;35.63;;;20.20;;
2177;SDS011;1095;50.992;6.798;2022-11-20T13:14:24;36.85;;;21.77;;
2177;SDS011;1095;50.992;6.798;2022-11-20T13:17:00;31.23;;;20.23;;
2177;SDS011;1095;50.992;6.798;2022-11-20T13:19:32;35.75;;;21.52;;
2177;SDS011;1095;50.992;6.798;2022-11-20T13:22:00;34.75;;;21.02;;
2177;SDS011;1095;50.992;6.798;2022-11-20T13:24:27;37.10;;;20.67;;
2177;SDS011;1095;50.992;6.798;2022-11-20T13:27:01;32.08;;;20.40;;
2177;SDS011;1095;50.992;6.798;2022-11-20T13:29:44;36.88;;;22.92;;
2177;SDS011;1095;50.992;6.798;2022-11-20T13:32:14;35.90;;;22.20;;
2177;SDS011;1095;50.992;6.798;2022-11-20T13:34:51;33.08;;;21.05;;
2177;SDS011;1095;50.992;6.798;2022-11-20T13:37:25;35.97;;;21.88;;
2177;SDS011;1095;50.992;6.798;2022-11-20T13:40:04;39.05;;;23.15;;
2177;SDS011;1095;50.992;6.798;2022-11-20T13:45:10;36.97;;;21.38;;
2177;SDS011;1095;50.992;6.798;2022-11-20T13:47:48;35.33;;;21.40;;
2177;SDS011;1095;50.992;6.798;2022-11-20T13:50:15;40.22;;;24.02;;
2177;SDS011;1095;50.992;6.798;2022-11-20T13:52:44;35.33;;;20.60;;
2177;SDS011;1095;50.992;6.798;2022-11-20T13:55:23;36.53;;;22.48;;
2177;SDS011;1095;50.992;6.798;2022-11-20T13:58:05;36.63;;;23.70;;
2177;SDS011;1095;50.992;6.798;2022-11-20T14:00:55;37.67;;;22.45;;
2177;SDS011;1095;50.992;6.798;2022-11-20T14:06:10;41.63;;;24.50;;
2177;SDS011;1095;50.992;6.798;2022-11-20T14:09:27;40.42;;;24.77;;
2177;SDS011;1095;50.992;6.798;2022-11-20T14:11:59;43.92;;;26.23;;
2177;SDS011;1095;50.992;6.798;2022-11-20T14:17:37;42.28;;;25.92;;
2177;SDS011;1095;50.992;6.798;2022-11-20T14:20:26;43.25;;;24.90;;
2177;SDS011;1095;50.992;6.798;2022-11-20T14:23:39;38.28;;;22.90;;
2177;SDS011;1095;50.992;6.798;2022-11-20T14:26:12;39.00;;;23.67;;
2177;SDS011;1095;50.992;6.798;2022-11-20T14:29:02;41.30;;;23.40;;
2177;SDS011;1095;50.992;6.798;2022-11-20T14:38:13;38.05;;;22.35;;
2177;SDS011;1095;50.992;6.798;2022-11-20T14:40:47;38.65;;;23.95;;
2177;SDS011;1095;50.992;6.798;2022-11-20T14:43:38;42.90;;;27.17;;
2177;SDS011;1095;50.992;6.798;2022-11-20T14:46:21;38.67;;;23.75;;
2177;SDS011;1095;50.992;6.798;2022-11-20T14:55:53;39.40;;;21.38;;
2177;SDS011;1095;50.992;6.798;2022-11-20T14:58:32;39.47;;;23.95;;
2177;SDS011;1095;50.992;6.798;2022-11-20T15:01:01;41.38;;;25.02;;
2177;SDS011;1095;50.992;6.798;2022-11-20T15:03:33;38.50;;;23.55;;
2177;SDS011;1095;50.992;6.798;2022-11-20T15:06:10;41.33;;;25.15;;
2177;SDS011;1095;50.992;6.798;2022-11-20T15:08:39;38.83;;;23.27;;
2177;SDS011;1095;50.992;6.798;2022-11-20T15:11:17;41.25;;;22.17;;
2177;SDS011;1095;50.992;6.798;2022-11-20T15:13:50;38.78;;;24.27;;
2177;SDS011;1095;50.992;6.798;2022-11-20T15:19:18;36.58;;;22.70;;
2177;SDS011;1095;50.992;6.798;2022-11-20T15:21:54;36.95;;;22.88;;
2177;SDS011;1095;50.992;6.798;2022-11-20T15:24:21;40.28;;;23.75;;
2177;SDS011;1095;50.992;6.798;2022-11-20T15:26:51;42.17;;;23.98;;
2177;SDS011;1095;50.992;6.798;2022-11-20T15:29:18;38.75;;;23.10;;
2177;SDS011;1095;50.992;6.798;2022-11-20T15:31:46;44.63;;;24.80;;
2177;SDS011;1095;50.992;6.798;2022-11-20T15:34:18;40.05;;;24.83;;
2177;SDS011;1095;50.992;6.798;2022-11-20T15:36:48;41.53;;;24.77;;
2177;SDS011;1095;50.992;6.798;2022-11-20T15:39:29;43.72;;;25.05;;
2177;SDS011;1095;50.992;6.798;2022-11-20T15:42:05;42.88;;;24.67;;
2177;SDS011;1095;50.992;6.798;2022-11-20T15:44:49;53.97;;;27.45;;
2177;SDS011;1095;50.992;6.798;2022-11-20T15:55:41;45.80;;;26.60;;